Time;durP1;ratioP1;P1;durP2;ratioP2;P2;SDS_P1;SDS_P2;PMS_P1;PMS_P2;Temp;Humidity;BMP_temperature;BMP_pressure;BME280_temperature;BME280_humidity;BME280_pressure;Samples;Min_cycle;Max_cycle;Signal;HPM_P1;HPM_P2
2023/03/16 00:01:16;;;;;;;9.52;7.10;;;9.90;67.50;;;;;;5093400;28;20036;-72
2023/03/16 00:03:42;;;;;;;9.75;7.07;;;9.90;67.50;;;;;;5093590;28;20024;-73
2023/03/16 00:06:07;;;;;;;10.70;7.78;;;9.90;67.60;;;;;;5075274;28;20055;-74
2023/03/16 00:08:34;;;;;;;9.35;7.10;;;9.90;67.60;;;;;;5092618;28;20067;-72
2023/03/16 00:11:01;;;;;;;11.40;7.38;;;9.90;67.70;;;;;;5092931;28;20056;-74
2023/03/16 00:13:28;;;;;;;8.90;7.15;;;9.90;67.70;;;;;;5093145;28;20117;-73
2023/03/16 00:15:56;;;;;;;9.75;6.78;;;9.90;67.60;;;;;;5093017;28;20024;-72
2023/03/16 00:18:27;;;;;;;8.77;6.30;;;9.90;67.70;;;;;;5075387;28;20537;-73
2023/03/16 00:20:54;;;;;;;8.63;6.93;;;9.90;67.70;;;;;;5075030;28;20032;-72
2023/03/16 00:23:25;;;;;;;8.48;6.43;;;9.90;67.70;;;;;;5092923;28;20024;-72
2023/03/16 00:25:52;;;;;;;8.35;6.40;;;9.90;67.70;;;;;;5074794;28;20060;-72
2023/03/16 00:28:18;;;;;;;9.18;6.13;;;9.90;67.80;;;;;;5074884;28;20031;-73
2023/03/16 00:30:46;;;;;;;9.50;6.45;;;9.90;67.80;;;;;;5093206;28;20036;-73
2023/03/16 00:33:12;;;;;;;9.77;6.65;;;9.90;67.80;;;;;;5092414;28;20028;-72
2023/03/16 00:35:37;;;;;;;9.05;7.00;;;9.90;67.80;;;;;;5074584;28;20039;-72
2023/03/16 00:38:03;;;;;;;9.10;6.70;;;9.90;67.90;;;;;;5075003;28;20466;-72
2023/03/16 00:40:29;;;;;;;9.43;6.95;;;9.90;67.80;;;;;;5093436;28;20074;-73
2023/03/16 00:42:55;;;;;;;9.55;7.20;;;9.80;67.80;;;;;;5075120;28;20073;-72
2023/03/16 00:45:22;;;;;;;8.60;6.55;;;9.90;67.80;;;;;;5092785;28;20043;-73
2023/03/16 00:47:48;;;;;;;9.05;6.90;;;9.90;67.90;;;;;;5074865;28;20024;-73
2023/03/16 00:50:14;;;;;;;10.15;7.05;;;9.90;67.90;;;;;;5075385;28;20028;-72
2023/03/16 00:52:41;;;;;;;11.13;7.07;;;9.80;67.80;;;;;;5092977;28;20086;-72
2023/03/16 00:55:07;;;;;;;9.38;7.00;;;9.80;67.90;;;;;;5074375;28;20028;-74
2023/03/16 00:57:33;;;;;;;10.32;7.20;;;9.80;68.00;;;;;;5092697;28;20054;-72
2023/03/16 01:00:01;;;;;;;8.07;6.13;;;9.80;68.00;;;;;;5092531;28;20035;-73
2023/03/16 01:02:26;;;;;;;7.38;5.95;;;9.80;68.00;;;;;;5093373;28;20074;-71
2023/03/16 01:04:53;;;;;;;7.47;6.03;;;9.80;68.00;;;;;;5074268;28;20066;-72
2023/03/16 01:07:19;;;;;;;7.97;5.90;;;9.80;68.50;;;;;;5092643;28;20024;-73
2023/03/16 01:09:45;;;;;;;7.60;5.97;;;9.80;68.00;;;;;;5074270;28;20039;-72
2023/03/16 01:12:13;;;;;;;6.57;5.30;;;9.80;68.00;;;;;;5092441;28;20359;-72
2023/03/16 01:14:40;;;;;;;7.72;5.88;;;9.80;68.10;;;;;;5074449;28;20486;-73
2023/03/16 01:17:07;;;;;;;7.40;5.72;;;9.80;68.10;;;;;;5092494;28;20032;-73
2023/03/16 01:19:36;;;;;;;7.13;5.85;;;9.80;68.10;;;;;;5095311;28;20059;-72
2023/03/16 01:22:04;;;;;;;8.38;5.60;;;9.80;68.10;;;;;;5096814;28;20039;-72
2023/03/16 01:24:30;;;;;;;7.20;5.57;;;9.80;68.10;;;;;;5078069;28;20028;-72
2023/03/16 01:26:56;;;;;;;8.02;5.78;;;9.80;68.10;;;;;;5096086;28;20031;-72
2023/03/16 01:29:21;;;;;;;8.27;5.93;;;9.90;68.20;;;;;;5096688;28;20504;-71
2023/03/16 01:31:49;;;;;;;8.18;6.15;;;9.80;68.10;;;;;;5096559;28;20028;-74
2023/03/16 01:34:17;;;;;;;7.18;5.95;;;9.90;68.10;;;;;;5096447;28;20044;-73
2023/03/16 01:36:43;;;;;;;8.43;5.90;;;9.90;68.20;;;;;;5077560;28;20488;-72
2023/03/16 01:39:13;;;;;;;8.68;6.72;;;9.90;68.10;;;;;;5096072;28;20020;-72
2023/03/16 01:41:40;;;;;;;8.02;6.60;;;9.90;68.10;;;;;;5096409;28;20032;-74
2023/03/16 01:44:11;;;;;;;9.57;6.07;;;9.90;68.10;;;;;;5078211;28;20036;-73
2023/03/16 01:46:37;;;;;;;9.00;6.32;;;9.90;68.10;;;;;;5096011;28;20471;-72
2023/03/16 01:49:08;;;;;;;8.82;7.22;;;9.90;68.10;;;;;;5095693;28;20123;-72
2023/03/16 01:51:42;;;;;;;9.32;7.18;;;9.80;68.00;;;;;;5096584;28;20055;-73
2023/03/16 01:54:48;;;;;;;9.55;7.05;;;9.80;68.00;;;;;;5097117;28;20474;-72
2023/03/16 01:57:15;;;;;;;;;;;9.70;68.40;;;;;;4994287;28;20568;-74
2023/03/16 01:59:57;;;;;;;7.57;5.90;;;9.70;68.80;;;;;;5078762;28;19904;-74
2023/03/16 02:02:26;;;;;;;8.23;6.75;;;9.80;68.10;;;;;;5077823;28;20551;-72
2023/03/16 02:05:05;;;;;;;9.30;6.68;;;9.70;68.00;;;;;;5077551;28;20424;-73
2023/03/16 02:07:34;;;;;;;10.20;7.28;;;9.70;68.60;;;;;;5095485;28;20025;-73
2023/03/16 02:10:01;;;;;;;10.35;7.97;;;9.70;68.20;;;;;;5077812;28;20430;-73
2023/03/16 02:12:28;;;;;;;11.95;8.43;;;9.70;68.20;;;;;;5077161;28;20032;-72
2023/03/16 02:14:53;;;;;;;10.98;8.38;;;9.70;68.20;;;;;;5077467;28;20028;-72
2023/03/16 02:17:22;;;;;;;9.15;7.85;;;9.70;68.30;;;;;;5095140;28;20339;-73
2023/03/16 02:19:48;;;;;;;10.43;7.95;;;9.60;68.30;;;;;;5077441;28;20036;-73
2023/03/16 02:22:15;;;;;;;9.10;7.07;;;9.60;68.40;;;;;;5095795;28;20051;-73
2023/03/16 02:24:41;;;;;;;9.55;6.55;;;9.60;68.50;;;;;;5077128;28;20492;-73
2023/03/16 02:27:13;;;;;;;8.30;6.38;;;9.60;68.50;;;;;;5094962;28;20034;-72
2023/03/16 02:29:47;;;;;;;8.23;6.68;;;9.60;68.50;;;;;;5095276;28;20046;-73
2023/03/16 02:32:14;;;;;;;9.60;7.18;;;9.60;68.60;;;;;;5095012;28;20020;-72
2023/03/16 02:34:41;;;;;;;8.25;6.65;;;9.60;68.60;;;;;;5095313;28;20126;-73
2023/03/16 02:37:07;;;;;;;7.95;6.30;;;9.60;68.50;;;;;;5076325;28;20035;-73
2023/03/16 02:39:33;;;;;;;9.75;7.43;;;9.60;68.60;;;;;;5076875;28;20115;-73
2023/03/16 02:42:00;;;;;;;9.30;7.03;;;9.60;68.50;;;;;;5094999;28;20114;-75
2023/03/16 02:44:34;;;;;;;10.32;7.57;;;9.60;68.50;;;;;;5077199;28;20393;-72
2023/03/16 02:47:04;;;;;;;8.52;6.85;;;9.70;68.70;;;;;;5076888;28;20085;-73
2023/03/16 02:49:35;;;;;;;9.13;7.20;;;9.70;68.70;;;;;;5094632;28;20054;-73
2023/03/16 02:52:02;;;;;;;10.10;7.80;;;9.60;68.60;;;;;;5094511;28;20042;-74
2023/03/16 02:54:28;;;;;;;11.18;7.65;;;9.60;68.60;;;;;;5095536;28;20036;-72
2023/03/16 02:56:54;;;;;;;10.32;8.43;;;9.70;68.60;;;;;;5094696;28;20444;-73
2023/03/16 02:59:20;;;;;;;10.45;8.32;;;9.70;68.70;;;;;;5094774;28;20040;-73
2023/03/16 03:01:46;;;;;;;11.05;7.90;;;9.70;68.60;;;;;;5094377;28;20042;-72
2023/03/16 03:04:12;;;;;;;9.75;7.43;;;9.60;68.60;;;;;;5096041;28;20427;-73
2023/03/16 03:06:38;;;;;;;10.15;7.70;;;9.60;68.60;;;;;;5094426;28;20516;-73
2023/03/16 03:09:04;;;;;;;9.77;7.43;;;9.70;68.70;;;;;;5094055;28;20458;-73
2023/03/16 03:11:30;;;;;;;11.25;7.28;;;9.70;68.70;;;;;;5094959;28;20111;-74
2023/03/16 03:13:56;;;;;;;10.18;7.57;;;9.60;68.60;;;;;;5093907;28;20501;-73
2023/03/16 03:16:22;;;;;;;9.10;6.93;;;9.60;68.60;;;;;;5094473;28;20020;-72
2023/03/16 03:18:48;;;;;;;10.75;7.85;;;9.60;68.70;;;;;;5094267;28;20058;-72
2023/03/16 03:21:14;;;;;;;12.63;8.00;;;9.60;68.70;;;;;;5094247;28;20036;-73
2023/03/16 03:23:40;;;;;;;10.10;8.10;;;9.60;68.70;;;;;;5094584;28;20024;-73
2023/03/16 03:26:06;;;;;;;10.77;7.85;;;9.50;68.70;;;;;;5093609;28;20028;-73
2023/03/16 03:28:33;;;;;;;9.90;7.40;;;9.50;68.70;;;;;;5076612;28;20059;-72
2023/03/16 03:31:00;;;;;;;10.07;7.63;;;9.50;68.70;;;;;;5094072;28;20035;-73
2023/03/16 03:33:26;;;;;;;9.98;7.32;;;9.50;68.70;;;;;;5094261;28;20453;-72
2023/03/16 03:35:56;;;;;;;10.73;8.60;;;9.50;68.80;;;;;;5093501;28;20359;-73
2023/03/16 03:38:23;;;;;;;10.52;7.47;;;9.50;68.80;;;;;;5075867;28;20028;-73
2023/03/16 03:40:53;;;;;;;11.05;8.20;;;9.50;68.80;;;;;;5075626;28;20553;-73
2023/03/16 03:43:19;;;;;;;11.48;7.80;;;9.50;68.80;;;;;;5076017;28;20024;-73
2023/03/16 03:45:45;;;;;;;11.85;8.52;;;9.50;68.90;;;;;;5093646;28;20022;-73
2023/03/16 03:48:11;;;;;;;10.60;8.70;;;9.50;68.90;;;;;;5093536;28;20467;-73
2023/03/16 03:50:38;;;;;;;10.82;8.07;;;9.50;68.90;;;;;;5075241;28;20458;-73
2023/03/16 03:53:04;;;;;;;10.65;8.32;;;9.50;69.50;;;;;;5075845;28;20036;-72
2023/03/16 03:55:30;;;;;;;12.02;9.13;;;9.50;69.00;;;;;;5093717;28;20531;-73
2023/03/16 03:57:55;;;;;;;15.48;11.02;;;9.50;69.00;;;;;;5075297;28;20477;-73
2023/03/16 04:00:21;;;;;;;12.40;8.95;;;9.50;69.00;;;;;;5093581;28;20024;-73
2023/03/16 04:02:47;;;;;;;12.20;9.23;;;9.50;69.10;;;;;;5093107;28;20039;-73
2023/03/16 04:05:13;;;;;;;12.43;9.70;;;9.50;69.00;;;;;;5075722;28;20028;-74
2023/03/16 04:07:39;;;;;;;13.07;9.35;;;9.40;69.00;;;;;;5093305;28;20081;-73
2023/03/16 04:10:06;;;;;;;14.40;9.75;;;9.50;69.20;;;;;;5074950;28;20066;-75
2023/03/16 04:12:32;;;;;;;13.52;9.80;;;9.50;69.20;;;;;;5075453;28;20028;-73
2023/03/16 04:14:58;;;;;;;13.05;9.68;;;9.50;69.20;;;;;;5094879;28;20024;-74
2023/03/16 04:17:23;;;;;;;12.20;9.27;;;9.50;69.20;;;;;;5093332;28;20077;-73
2023/03/16 04:19:49;;;;;;;11.95;9.27;;;9.50;69.30;;;;;;5093247;28;20032;-74
2023/03/16 04:22:15;;;;;;;23.50;14.80;;;9.50;69.30;;;;;;5093271;28;20032;-72
2023/03/16 04:24:42;;;;;;;23.90;16.38;;;9.50;69.30;;;;;;5075293;28;20031;-75
2023/03/16 04:27:10;;;;;;;21.73;16.38;;;9.50;69.30;;;;;;5092936;28;20059;-73
2023/03/16 04:29:37;;;;;;;25.17;16.45;;;9.50;69.30;;;;;;5074995;28;20020;-73
2023/03/16 04:32:04;;;;;;;19.48;13.75;;;9.50;69.30;;;;;;5092312;28;20032;-74
2023/03/16 04:34:30;;;;;;;20.20;14.63;;;9.40;69.20;;;;;;5093613;28;20143;-73
2023/03/16 04:36:56;;;;;;;16.65;12.25;;;9.50;69.40;;;;;;5093276;28;20441;-72
2023/03/16 04:39:22;;;;;;;17.60;12.23;;;9.40;69.40;;;;;;5058288;28;20024;-73
2023/03/16 04:41:48;;;;;;;16.40;11.45;;;9.40;69.50;;;;;;5092573;28;20040;-72
2023/03/16 04:44:14;;;;;;;17.95;11.73;;;9.40;69.50;;;;;;5074784;28;20479;-73
2023/03/16 04:46:39;;;;;;;12.52;9.68;;;9.40;69.70;;;;;;5093305;28;20103;-73
2023/03/16 04:49:08;;;;;;;13.15;9.90;;;9.40;69.60;;;;;;5075304;28;20027;-72
2023/03/16 04:51:36;;;;;;;15.82;11.10;;;9.40;69.70;;;;;;5074310;28;20046;-72
2023/03/16 04:54:02;;;;;;;14.38;9.15;;;9.40;69.60;;;;;;5092215;28;20120;-75
2023/03/16 04:56:28;;;;;;;16.15;11.65;;;9.40;69.60;;;;;;5074645;28;20473;-73
2023/03/16 04:58:55;;;;;;;18.33;11.75;;;9.40;69.70;;;;;;5092796;28;20028;-73
2023/03/16 05:01:22;;;;;;;16.20;10.77;;;9.50;69.70;;;;;;5092836;28;20028;-73
2023/03/16 05:03:48;;;;;;;14.18;9.57;;;9.50;69.70;;;;;;5092404;28;20031;-74
2023/03/16 05:06:14;;;;;;;11.15;8.90;;;9.50;69.70;;;;;;5074425;28;20081;-73
2023/03/16 05:08:40;;;;;;;14.48;10.13;;;9.60;69.70;;;;;;5074541;28;20039;-73
2023/03/16 05:11:06;;;;;;;13.07;9.38;;;9.60;69.70;;;;;;5092793;28;20389;-74
2023/03/16 05:13:32;;;;;;;11.48;8.27;;;9.60;69.60;;;;;;5074360;28;20028;-73
2023/03/16 05:15:57;;;;;;;11.82;8.57;;;9.60;69.60;;;;;;5074030;28;20465;-72
2023/03/16 05:18:23;;;;;;;10.70;7.43;;;9.60;69.60;;;;;;5074745;28;20062;-74
2023/03/16 05:20:51;;;;;;;10.38;7.50;;;9.60;69.60;;;;;;5100398;28;20043;-73
2023/03/16 05:23:16;;;;;;;9.05;6.50;;;9.60;69.60;;;;;;5084938;28;20073;-74
2023/03/16 05:25:42;;;;;;;9.95;7.78;;;9.50;69.60;;;;;;5102004;28;20398;-74
2023/03/16 05:28:08;;;;;;;10.18;7.10;;;9.50;69.60;;;;;;5103827;28;20098;-74
2023/03/16 05:30:36;;;;;;;8.60;6.13;;;9.50;69.60;;;;;;5084747;28;20043;-77
2023/03/16 05:33:18;;;;;;;8.43;6.10;;;9.60;70.00;;;;;;5099528;28;20401;-69
2023/03/16 05:35:44;;;;;;;8.05;6.50;;;9.60;70.40;;;;;;5061676;28;20040;-74
2023/03/16 05:38:09;;;;;;;6.63;5.65;;;9.70;70.40;;;;;;5063490;28;20017;-71
2023/03/16 05:40:36;;;;;;;8.90;5.53;;;9.80;70.40;;;;;;5062338;28;20032;-71
2023/03/16 05:43:03;;;;;;;7.55;5.45;;;9.90;70.30;;;;;;5063963;28;20043;-69
2023/03/16 05:45:29;;;;;;;6.32;4.97;;;10.00;70.30;;;;;;5082566;28;20025;-72
2023/03/16 05:47:55;;;;;;;7.43;5.43;;;10.00;70.10;;;;;;5080710;28;20387;-72
2023/03/16 05:50:21;;;;;;;7.47;5.60;;;10.10;70.10;;;;;;5064047;28;20028;-71
2023/03/16 05:52:47;;;;;;;6.45;4.95;;;10.20;70.00;;;;;;5064025;28;20024;-72
2023/03/16 05:55:17;;;;;;;6.93;5.35;;;10.20;69.90;;;;;;5061851;28;20471;-72
2023/03/16 05:57:43;;;;;;;6.25;4.93;;;10.30;69.80;;;;;;5081172;28;20355;-72
2023/03/16 06:00:14;;;;;;;7.10;5.25;;;10.40;69.80;;;;;;5064498;28;20032;-74
2023/03/16 06:02:48;;;;;;;6.65;5.32;;;10.40;69.70;;;;;;5063776;28;20420;-73
2023/03/16 06:05:15;;;;;;;7.50;5.50;;;10.50;69.60;;;;;;5080848;28;20024;-72
2023/03/16 06:07:41;;;;;;;7.20;5.25;;;10.50;69.50;;;;;;5066148;28;20051;-76
2023/03/16 06:10:08;;;;;;;6.93;5.30;;;10.60;69.40;;;;;;5086160;28;20017;-72
2023/03/16 06:12:33;;;;;;;6.72;5.07;;;10.70;69.40;;;;;;5084622;28;20029;-73
2023/03/16 06:15:00;;;;;;;6.57;5.00;;;10.70;69.30;;;;;;5085544;28;20390;-72
2023/03/16 06:17:26;;;;;;;7.13;5.30;;;10.80;69.10;;;;;;5065478;28;20111;-75
2023/03/16 06:19:52;;;;;;;7.07;5.25;;;10.80;69.10;;;;;;5091673;28;20123;-73
2023/03/16 06:22:18;;;;;;;5.25;4.63;;;10.90;69.00;;;;;;5077150;28;20024;-75
2023/03/16 06:24:43;;;;;;;6.72;4.80;;;10.90;68.90;;;;;;5076944;28;20035;-73
2023/03/16 06:27:13;;;;;;;6.80;5.38;;;11.00;68.80;;;;;;5080748;28;20032;-72
2023/03/16 06:29:43;;;;;;;8.02;5.18;;;11.00;68.80;;;;;;5095711;28;20081;-76
2023/03/16 06:32:36;;;;;;;6.07;4.47;;;11.00;68.60;;;;;;5097017;28;20063;-74
2023/03/16 06:35:04;;;;;;;5.25;4.35;;;11.10;68.60;;;;;;5088448;28;20552;-73
2023/03/16 06:37:30;;;;;;;6.20;5.05;;;11.10;68.50;;;;;;5091312;28;20416;-73
2023/03/16 06:39:56;;;;;;;5.97;4.80;;;11.20;68.40;;;;;;5088494;28;20079;-73
2023/03/16 06:42:22;;;;;;;6.35;4.82;;;11.20;68.40;;;;;;5087370;28;20059;-73
2023/03/16 06:44:48;;;;;;;7.03;4.82;;;11.20;68.20;;;;;;5087902;28;20102;-73
2023/03/16 06:47:14;;;;;;;7.18;5.10;;;11.30;68.20;;;;;;5088856;28;20131;-72
2023/03/16 06:49:39;;;;;;;5.65;4.55;;;11.30;68.20;;;;;;5097342;28;20027;-73
2023/03/16 06:52:05;;;;;;;6.65;4.88;;;11.30;68.10;;;;;;5079629;28;20119;-72
2023/03/16 06:54:34;;;;;;;6.80;5.18;;;11.30;68.00;;;;;;5093795;28;20028;-71
2023/03/16 06:57:00;;;;;;;6.60;4.75;;;11.40;68.00;;;;;;5093924;28;20024;-71
2023/03/16 06:59:26;;;;;;;5.85;4.57;;;11.40;67.90;;;;;;5094751;28;20396;-76
2023/03/16 07:01:52;;;;;;;6.10;4.82;;;11.40;67.90;;;;;;5100419;28;20092;-82
2023/03/16 07:04:17;;;;;;;6.35;4.68;;;11.50;67.90;;;;;;5093695;28;20088;-80
2023/03/16 07:06:43;;;;;;;6.57;5.00;;;11.40;67.80;;;;;;5095519;28;20027;-78
2023/03/16 07:09:09;;;;;;;6.22;5.03;;;11.50;67.70;;;;;;5099759;28;20032;-82
2023/03/16 07:11:35;;;;;;;5.90;4.85;;;11.60;67.70;;;;;;5094000;28;20032;-83
2023/03/16 07:14:01;;;;;;;5.85;4.63;;;11.60;67.60;;;;;;5075121;28;20063;-72
2023/03/16 07:16:27;;;;;;;6.43;4.93;;;11.60;67.60;;;;;;5092678;28;20024;-74
2023/03/16 07:18:53;;;;;;;6.30;5.00;;;11.70;67.50;;;;;;5074961;28;20024;-73
2023/03/16 07:21:20;;;;;;;5.97;5.05;;;11.70;67.40;;;;;;5075176;28;20044;-74
2023/03/16 07:23:46;;;;;;;5.47;4.32;;;11.70;67.30;;;;;;5094770;28;20121;-72
2023/03/16 07:26:12;;;;;;;6.07;4.68;;;11.80;67.30;;;;;;5094355;28;20052;-76
2023/03/16 07:28:38;;;;;;;5.82;4.68;;;11.80;67.20;;;;;;5075811;28;20036;-75
2023/03/16 07:31:05;;;;;;;5.40;4.43;;;11.90;67.20;;;;;;5075660;28;20032;-75
2023/03/16 07:33:32;;;;;;;6.50;4.90;;;11.90;67.10;;;;;;5094024;28;20052;-78
2023/03/16 07:35:58;;;;;;;6.25;5.07;;;11.90;67.00;;;;;;5075777;28;20123;-77
2023/03/16 07:38:24;;;;;;;6.68;5.10;;;12.00;66.90;;;;;;5093861;28;20036;-74
2023/03/16 07:40:53;;;;;;;5.47;4.47;;;12.10;66.90;;;;;;5075834;28;20043;-75
2023/03/16 07:43:18;;;;;;;5.85;4.63;;;12.10;66.80;;;;;;5075467;28;20023;-76
2023/03/16 07:45:49;;;;;;;6.05;4.35;;;12.10;66.70;;;;;;5075252;28;20031;-77
2023/03/16 07:48:14;;;;;;;5.18;4.47;;;12.10;66.60;;;;;;5077119;28;20066;-75
2023/03/16 07:50:40;;;;;;;5.10;4.45;;;12.20;66.60;;;;;;5093985;28;20055;-79
2023/03/16 07:53:06;;;;;;;5.45;4.40;;;12.20;66.50;;;;;;5075627;28;20028;-78
2023/03/16 07:55:31;;;;;;;5.47;4.80;;;12.30;66.50;;;;;;5093795;28;20024;-76
2023/03/16 07:57:57;;;;;;;6.30;4.78;;;12.40;66.40;;;;;;5074940;28;20466;-79
2023/03/16 08:00:23;;;;;;;5.93;4.30;;;12.40;66.30;;;;;;5075326;28;20078;-82
2023/03/16 08:02:50;;;;;;;5.97;4.80;;;12.50;66.20;;;;;;5093700;28;20020;-76
2023/03/16 08:05:16;;;;;;;5.50;4.30;;;12.50;66.10;;;;;;5077672;28;20393;-76
2023/03/16 08:07:42;;;;;;;6.18;5.13;;;12.50;66.00;;;;;;5104652;28;20024;-76
2023/03/16 08:10:08;;;;;;;5.85;4.68;;;12.60;66.00;;;;;;5086772;28;20432;-75
2023/03/16 08:12:34;;;;;;;6.07;4.90;;;12.60;66.10;;;;;;5102844;28;20374;-77
2023/03/16 08:14:59;;;;;;;5.78;4.57;;;12.60;65.80;;;;;;5099390;28;20039;-78
2023/03/16 08:17:25;;;;;;;6.05;4.78;;;12.70;65.80;;;;;;5086284;28;20039;-80
2023/03/16 08:19:51;;;;;;;6.57;4.53;;;12.80;65.80;;;;;;5101195;28;20027;-79
2023/03/16 08:22:17;;;;;;;5.40;4.43;;;12.80;65.70;;;;;;5084960;28;20024;-78
2023/03/16 08:24:43;;;;;;;5.63;4.43;;;12.90;65.60;;;;;;5083655;28;20028;-78
2023/03/16 08:27:09;;;;;;;5.80;4.65;;;12.90;65.50;;;;;;5101950;28;20027;-77
2023/03/16 08:29:36;;;;;;;4.57;3.92;;;12.90;65.40;;;;;;5083656;28;20020;-77
2023/03/16 08:32:02;;;;;;;5.72;4.75;;;13.00;65.40;;;;;;5082589;28;20044;-78
2023/03/16 08:34:29;;;;;;;5.45;4.43;;;13.00;65.30;;;;;;5083707;28;20132;-77
2023/03/16 08:36:54;;;;;;;5.45;4.30;;;13.10;65.20;;;;;;5084505;28;20031;-76
2023/03/16 08:39:20;;;;;;;5.47;4.30;;;13.10;65.10;;;;;;5112503;28;20334;-74
2023/03/16 08:41:47;;;;;;;5.18;4.28;;;13.10;65.10;;;;;;5094038;28;20039;-76
2023/03/16 08:44:12;;;;;;;4.95;3.90;;;13.10;65.10;;;;;;5085043;28;20499;-78
2023/03/16 08:46:39;;;;;;;5.28;4.40;;;13.00;65.00;;;;;;5080430;28;20107;-80
2023/03/16 08:49:05;;;;;;;5.05;4.35;;;13.10;65.00;;;;;;5073834;28;20024;-81
2023/03/16 08:51:32;;;;;;;5.28;4.25;;;13.10;64.90;;;;;;5092030;28;20074;-79
2023/03/16 08:53:58;;;;;;;5.78;4.40;;;13.10;64.90;;;;;;5098167;28;20024;-73
2023/03/16 08:56:24;;;;;;;5.78;4.30;;;13.20;64.90;;;;;;5101388;28;20028;-79
2023/03/16 08:58:50;;;;;;;6.13;4.72;;;13.20;64.80;;;;;;5106234;28;20107;-76
2023/03/16 09:01:17;;;;;;;4.85;4.05;;;13.30;64.80;;;;;;5074848;28;20036;-76
2023/03/16 09:03:45;;;;;;;6.05;4.53;;;13.30;64.70;;;;;;5092774;28;20059;-77
2023/03/16 09:06:13;;;;;;;5.55;4.18;;;13.30;64.60;;;;;;5074237;28;20062;-76
2023/03/16 09:08:39;;;;;;;5.95;4.38;;;13.40;64.60;;;;;;5092180;28;20112;-75
2023/03/16 09:11:11;;;;;;;4.13;3.67;;;13.40;64.50;;;;;;5074272;28;20029;-78
2023/03/16 09:13:38;;;;;;;5.43;4.30;;;13.50;64.40;;;;;;5093184;28;20036;-78
2023/03/16 09:16:05;;;;;;;5.13;4.20;;;13.50;64.40;;;;;;5074117;28;20032;-73
2023/03/16 09:18:31;;;;;;;5.25;3.95;;;13.50;64.20;;;;;;5074778;28;20028;-79
2023/03/16 09:20:59;;;;;;;5.70;4.28;;;13.50;64.20;;;;;;5073965;28;20032;-76
2023/03/16 09:23:26;;;;;;;5.20;4.22;;;13.50;64.10;;;;;;5074544;28;20070;-75
2023/03/16 09:25:53;;;;;;;4.93;3.97;;;13.50;64.10;;;;;;5091860;28;20110;-74
2023/03/16 09:28:19;;;;;;;5.38;4.40;;;13.50;64.10;;;;;;5092587;28;20378;-77
2023/03/16 09:30:46;;;;;;;5.35;4.28;;;13.50;64.10;;;;;;5078841;28;20028;-77
2023/03/16 09:33:12;;;;;;;5.38;4.25;;;13.60;64.10;;;;;;5098814;28;20039;-81
2023/03/16 09:35:38;;;;;;;4.65;3.83;;;13.60;64.10;;;;;;5095285;28;20101;-81
2023/03/16 09:38:04;;;;;;;4.60;3.47;;;13.60;64.10;;;;;;5112410;28;20031;-78
2023/03/16 09:40:30;;;;;;;4.60;3.83;;;13.70;64.10;;;;;;5115727;28;20100;-78
2023/03/16 09:43:27;;;;;;;4.90;3.83;;;13.70;64.00;;;;;;5097698;28;20438;-77
2023/03/16 09:46:05;;;;;;;4.75;4.20;;;13.70;64.00;;;;;;5117615;28;20024;-79
2023/03/16 09:48:34;;;;;;;5.32;4.00;;;13.80;63.90;;;;;;5117559;28;20111;-78
2023/03/16 09:51:03;;;;;;;5.03;3.95;;;13.90;63.80;;;;;;5117444;28;20040;-79
2023/03/16 09:53:34;;;;;;;4.68;3.75;;;13.90;63.70;;;;;;5117409;28;20024;-77
2023/03/16 09:56:08;;;;;;;4.38;3.40;;;14.00;63.70;;;;;;5099030;28;20030;-79
2023/03/16 09:58:35;;;;;;;5.28;4.13;;;14.00;63.50;;;;;;5117574;28;20032;-79
2023/03/16 10:01:01;;;;;;;4.97;4.38;;;14.10;63.50;;;;;;5098760;28;20036;-79
2023/03/16 10:03:31;;;;;;;5.15;4.00;;;14.20;63.50;;;;;;5100298;28;20429;-79
2023/03/16 10:06:02;;;;;;;5.15;4.20;;;14.20;63.30;;;;;;5118543;28;20028;-79
2023/03/16 10:08:57;;;;;;;4.68;4.05;;;14.30;63.30;;;;;;5116778;28;20031;-79
2023/03/16 10:11:41;;;;;;;3.93;3.40;;;14.40;63.10;;;;;;5118542;28;20023;-79
2023/03/16 10:14:08;;;;;;;4.10;3.70;;;14.50;63.00;;;;;;5117392;28;20024;-80
2023/03/16 10:16:52;;;;;;;4.97;3.83;;;14.50;62.80;;;;;;5117031;28;20036;-80
2023/03/16 10:20:00;;;;;;;3.90;3.50;;;14.60;62.70;;;;;;5117309;28;20465;-79
2023/03/16 10:22:33;;;;;;;3.95;3.30;;;14.70;62.40;;;;;;5034163;28;20045;-77
2023/03/16 10:24:59;;;;;;;4.03;3.50;;;14.60;62.50;;;;;;5089694;28;20375;-79
2023/03/16 10:27:30;;;;;;;4.47;3.70;;;14.60;62.50;;;;;;5116568;28;20109;-79
2023/03/16 10:29:56;;;;;;;3.80;3.40;;;14.60;62.50;;;;;;5116582;28;20030;-78
2023/03/16 10:32:27;;;;;;;3.80;3.33;;;14.60;62.50;;;;;;5116309;28;20036;-79
2023/03/16 10:35:14;;;;;;;4.88;3.67;;;14.60;62.50;;;;;;5102557;28;20506;-78
2023/03/16 10:37:40;;;;;;;5.25;3.92;;;14.50;62.40;;;;;;5078081;28;20113;-79
2023/03/16 10:40:08;;;;;;;5.07;3.90;;;14.40;62.40;;;;;;5096233;28;20059;-80
2023/03/16 10:42:35;;;;;;;4.10;3.58;;;14.40;62.40;;;;;;5077937;28;20462;-77
2023/03/16 10:45:02;;;;;;;4.47;3.65;;;14.30;62.50;;;;;;5095817;28;20446;-77
2023/03/16 10:47:31;;;;;;;4.35;3.90;;;14.20;62.50;;;;;;5077955;28;20035;-79
2023/03/16 10:49:57;;;;;;;4.75;3.60;;;14.10;62.60;;;;;;5096268;28;20032;-78
2023/03/16 10:52:33;;;;;;;4.20;3.40;;;14.10;62.70;;;;;;5095324;28;20027;-79
2023/03/16 10:55:06;;;;;;;4.60;3.45;;;14.00;62.70;;;;;;5077993;28;20030;-79
2023/03/16 10:57:36;;;;;;;4.60;3.58;;;14.00;62.80;;;;;;5095819;28;20059;-79
2023/03/16 11:00:08;;;;;;;4.35;3.47;;;14.00;62.80;;;;;;5095661;28;20020;-79
2023/03/16 11:02:34;;;;;;;4.28;3.70;;;13.90;62.90;;;;;;5077436;28;20039;-79
2023/03/16 11:05:33;;;;;;;4.80;3.80;;;13.90;62.90;;;;;;5095683;28;20024;-79
2023/03/16 11:08:00;;;;;;;3.92;3.53;;;13.90;62.90;;;;;;5094847;28;20035;-79
2023/03/16 11:10:33;;;;;;;4.63;3.80;;;13.80;63.00;;;;;;5095607;28;20035;-79
2023/03/16 11:13:16;;;;;;;4.63;3.70;;;13.80;63.00;;;;;;5095688;28;20016;-78
2023/03/16 11:15:55;;;;;;;3.75;3.40;;;13.80;63.00;;;;;;5095584;28;20115;-78
2023/03/16 11:18:28;;;;;;;4.13;3.67;;;13.90;63.00;;;;;;5095313;28;20101;-80
2023/03/16 11:20:56;;;;;;;4.40;3.67;;;13.90;62.90;;;;;;5078076;28;20074;-78
2023/03/16 11:23:32;;;;;;;4.07;3.42;;;14.00;62.90;;;;;;5096897;28;20028;-81
2023/03/16 11:26:03;;;;;;;4.70;3.50;;;14.00;62.90;;;;;;5095358;28;20051;-79
2023/03/16 11:28:45;;;;;;;4.28;3.70;;;14.00;62.80;;;;;;5094902;28;20110;-78
2023/03/16 11:31:31;;;;;;;4.57;3.65;;;14.10;62.70;;;;;;5095180;28;20023;-79
2023/03/16 11:33:57;;;;;;;4.80;3.70;;;14.10;62.70;;;;;;5077704;28;20549;-79
2023/03/16 11:36:48;;;;;;;3.90;3.28;;;14.20;62.60;;;;;;5076600;28;20123;-79
2023/03/16 11:39:23;;;;;;;4.65;3.72;;;14.30;62.60;;;;;;5094939;28;20052;-79
2023/03/16 11:41:57;;;;;;;4.53;3.58;;;14.30;62.50;;;;;;5095252;28;20032;-78
2023/03/16 11:44:37;;;;;;;;;;;14.40;62.50;;;;;;5077258;28;20054;-78
2023/03/16 11:47:28;;;;;;;3.55;3.15;;;14.40;62.20;;;;;;5094981;28;19911;-79
2023/03/16 11:50:01;;;;;;;4.25;3.47;;;14.40;62.20;;;;;;5094797;28;20028;-79
2023/03/16 11:52:35;;;;;;;4.18;3.40;;;14.40;62.20;;;;;;5094866;28;20454;-78
2023/03/16 11:55:04;;;;;;;4.45;3.60;;;14.40;62.20;;;;;;5094613;28;20073;-79
2023/03/16 11:57:57;;;;;;;4.60;3.80;;;14.40;62.20;;;;;;5094714;28;20028;-78
2023/03/16 12:00:30;;;;;;;4.38;3.60;;;14.40;62.20;;;;;;5095000;28;20051;-79
2023/03/16 12:03:23;;;;;;;4.43;3.50;;;14.30;62.20;;;;;;5076168;28;20412;-79
2023/03/16 12:06:07;;;;;;;4.00;3.60;;;14.30;62.00;;;;;;5056742;28;20078;-79
2023/03/16 12:09:19;;;;;;;3.80;3.40;;;14.30;62.20;;;;;;5094854;28;20500;-79
2023/03/16 12:11:53;;;;;;;4.00;3.53;;;14.20;62.10;;;;;;5075576;28;20039;-79
2023/03/16 12:14:25;;;;;;;5.03;3.92;;;14.20;62.30;;;;;;5075861;28;20060;-78
2023/03/16 12:17:03;;;;;;;4.47;3.78;;;14.20;62.30;;;;;;5094552;28;20480;-77
2023/03/16 12:19:56;;;;;;;4.28;3.83;;;14.10;62.30;;;;;;5094414;28;20016;-78
2023/03/16 12:22:31;;;;;;;3.72;3.33;;;14.10;62.30;;;;;;5094042;28;20362;-80
2023/03/16 12:24:56;;;;;;;4.32;3.55;;;14.00;62.30;;;;;;5075491;28;20028;-79
2023/03/16 12:27:36;;;;;;;4.35;3.63;;;14.00;62.40;;;;;;5094095;28;20439;-79
2023/03/16 12:30:27;;;;;;;4.32;3.55;;;14.00;62.40;;;;;;5094311;28;20028;-79
2023/03/16 12:33:24;;;;;;;4.25;3.47;;;14.00;62.40;;;;;;5096015;28;20476;-79
2023/03/16 12:36:15;;;;;;;5.22;4.00;;;14.00;62.40;;;;;;5079587;28;20040;-79
2023/03/16 12:38:55;;;;;;;4.35;3.72;;;14.00;62.40;;;;;;5075170;28;20020;-80
2023/03/16 12:41:56;;;;;;;4.05;3.30;;;14.00;62.40;;;;;;5094922;28;20050;-80
2023/03/16 12:44:51;;;;;;;4.07;3.33;;;13.90;62.40;;;;;;5080204;28;20390;-79
2023/03/16 12:47:32;;;;;;;4.63;3.80;;;13.90;62.40;;;;;;5047524;28;20093;-78
2023/03/16 12:50:24;;;;;;;4.45;3.22;;;13.90;62.40;;;;;;5060008;28;20036;-79
2023/03/16 12:52:52;;;;;;;4.82;3.72;;;13.90;62.40;;;;;;5090752;28;20036;-79
2023/03/16 12:55:38;;;;;;;4.90;3.80;;;13.90;62.50;;;;;;5093622;28;20107;-78
2023/03/16 12:58:06;;;;;;;5.13;4.07;;;13.80;62.50;;;;;;5093690;28;20029;-78
2023/03/16 13:00:37;;;;;;;5.05;3.92;;;13.80;62.50;;;;;;5093346;28;20117;-78